Time;durP1;ratioP1;P1;durP2;ratioP2;P2;SDS_P1;SDS_P2;PMS_P1;PMS_P2;Temp;Humidity;BMP_temperature;BMP_pressure;BME280_temperature;BME280_humidity;BME280_pressure;Samples;Min_cycle;Max_cycle;Signal;HPM_P1;HPM_P2
2023/08/29 00:02:30;;;;;;;4.57;4.17;;;;;;;13.38;100.00;154797.69;5052955;28;20861;-75
2023/08/29 00:04:57;;;;;;;5.00;3.83;;;;;;;13.37;100.00;154795.09;5047034;28;20530;-76
2023/08/29 00:07:25;;;;;;;4.10;3.70;;;;;;;13.39;100.00;154799.00;5033121;28;20470;-76
2023/08/29 00:09:52;;;;;;;4.60;4.10;;;;;;;13.40;100.00;154801.56;5015414;28;20451;-75
2023/08/29 00:12:19;;;;;;;5.00;4.20;;;;;;;13.38;100.00;154797.69;5043007;28;20438;-76
2023/08/29 00:14:46;;;;;;;4.80;4.30;;;;;;;13.37;100.00;154793.78;5064077;28;20487;-75
2023/08/29 00:17:16;;;;;;;4.30;3.90;;;;;;;13.34;100.00;154787.28;5046841;28;20454;-75
2023/08/29 00:19:42;;;;;;;5.50;4.33;;;;;;;13.34;100.00;154787.28;5013595;28;20864;-76
2023/08/29 00:22:09;;;;;;;4.30;3.90;;;;;;;13.37;100.00;154795.09;5043132;28;21262;-75
2023/08/29 00:24:37;;;;;;;4.83;4.43;;;;;;;13.36;100.00;154792.53;5050347;28;20454;-75
2023/08/29 00:27:03;;;;;;;4.50;4.10;;;;;;;13.40;100.00;154802.88;5047178;28;20913;-76
2023/08/29 00:29:30;;;;;;;4.77;4.37;;;;;;;13.38;100.00;154797.69;5058715;28;20473;-76
2023/08/29 00:31:57;;;;;;;4.87;4.33;;;;;;;13.38;100.00;154797.69;5033341;28;20454;-75
2023/08/29 00:34:23;;;;;;;8.40;4.47;;;;;;;13.38;100.00;154797.69;5047295;28;20460;-76
2023/08/29 00:36:51;;;;;;;6.00;5.00;;;;;;;13.37;100.00;154795.09;5047062;28;20487;-75
2023/08/29 00:39:18;;;;;;;8.87;6.63;;;;;;;13.37;100.00;154795.09;5039807;28;20447;-76
2023/08/29 00:41:49;;;;;;;5.27;4.57;;;;;;;13.36;100.00;154792.53;5038674;28;20454;-75
2023/08/29 00:44:16;;;;;;;5.30;4.67;;;;;;;13.39;100.00;154799.00;5032910;28;20482;-76
2023/08/29 00:46:43;;;;;;;5.00;4.50;;;;;;;13.40;100.00;154801.56;5034129;28;21009;-75
2023/08/29 00:49:10;;;;;;;5.40;4.90;;;;;;;13.38;100.00;154796.38;5013167;28;20972;-76
2023/08/29 00:51:37;;;;;;;5.20;4.70;;;;;;;13.37;100.00;154795.09;5015686;28;20499;-75
2023/08/29 00:54:04;;;;;;;5.00;4.60;;;;;;;13.37;100.00;154795.09;5044641;28;20450;-76
2023/08/29 00:56:31;;;;;;;4.67;4.27;;;;;;;13.33;100.00;154784.72;5053289;28;20482;-76
2023/08/29 00:58:59;;;;;;;4.93;4.27;;;;;;;13.33;100.00;154783.44;5038596;28;20447;-76
2023/08/29 01:01:26;;;;;;;5.03;4.57;;;;;;;13.36;100.00;154791.22;5045997;28;20534;-76
2023/08/29 01:03:55;;;;;;;5.13;4.63;;;;;;;13.37;100.00;154795.09;5000766;28;20498;-76
2023/08/29 01:06:22;;;;;;;5.07;4.63;;;;;;;13.35;100.00;154789.91;5056123;28;20504;-74
2023/08/29 01:08:49;;;;;;;4.70;4.30;;;;;;;13.35;100.00;154788.59;5051336;28;20986;-75
2023/08/29 01:11:23;;;;;;;4.97;4.47;;;;;;;13.39;100.00;154799.00;5052133;28;21047;-74
2023/08/29 01:13:53;;;;;;;4.87;4.37;;;;;;;13.36;100.00;154791.22;5064104;28;20481;-76
2023/08/29 01:16:30;;;;;;;5.17;4.67;;;;;;;13.35;100.00;154789.91;5057437;28;20471;-76
2023/08/29 01:18:57;;;;;;;4.40;3.83;;;;;;;13.34;100.00;154787.28;5048291;28;20452;-75
2023/08/29 01:21:31;;;;;;;5.10;4.70;;;;;;;13.34;100.00;154787.28;5058654;28;20827;-75
2023/08/29 01:24:03;;;;;;;5.33;4.80;;;;;;;13.33;100.00;154784.72;5060044;28;20466;-75
2023/08/29 01:26:33;;;;;;;4.30;3.90;;;;;;;13.35;100.00;154789.91;5014501;28;20935;-75
2023/08/29 01:29:02;;;;;;;5.83;5.33;;;;;;;13.34;100.00;154786.03;5008748;28;20455;-76
2023/08/29 01:31:29;;;;;;;4.73;4.30;;;;;;;13.32;100.00;154782.13;5043673;28;20459;-76
2023/08/29 01:33:57;;;;;;;5.57;4.97;;;;;;;13.32;100.00;154780.81;5027300;28;20449;-76
2023/08/29 01:36:27;;;;;;;5.33;4.83;;;;;;;13.30;100.00;154776.94;5049495;28;20473;-76
2023/08/29 01:38:53;;;;;;;5.63;5.13;;;;;;;13.27;100.00;154769.13;5047798;28;20455;-76
2023/08/29 01:41:20;;;;;;;5.37;4.87;;;;;;;13.30;100.00;154776.94;5036470;28;20535;-76
2023/08/29 01:43:48;;;;;;;5.40;4.90;;;;;;;13.31;100.00;154779.56;5036432;28;20533;-75
2023/08/29 01:46:14;;;;;;;5.37;4.70;;;;;;;13.33;100.00;154784.72;5048334;28;20447;-76
2023/08/29 01:48:41;;;;;;;4.80;4.40;;;;;;;13.33;100.00;154783.44;5056002;28;20522;-75
2023/08/29 01:51:08;;;;;;;6.33;5.73;;;;;;;13.28;100.00;154771.75;5041442;28;20457;-75
2023/08/29 01:53:34;;;;;;;4.73;4.27;;;;;;;13.29;100.00;154774.31;5030757;28;20478;-75
2023/08/29 01:56:01;;;;;;;5.17;4.67;;;;;;;13.28;100.00;154771.75;5032007;28;20470;-75
2023/08/29 01:58:28;;;;;;;5.90;5.30;;;;;;;13.30;100.00;154776.94;5029124;28;20826;-75
2023/08/29 02:00:56;;;;;;;5.23;4.67;;;;;;;13.32;100.00;154782.13;5024871;28;20462;-75
2023/08/29 02:03:23;;;;;;;7.40;5.30;;;;;;;13.31;100.00;154779.56;5034420;28;20439;-75
2023/08/29 02:05:50;;;;;;;5.20;4.47;;;;;;;13.30;100.00;154775.63;5051546;28;20464;-76
2023/08/29 02:08:17;;;;;;;5.43;4.90;;;;;;;13.28;100.00;154771.75;5026106;28;20509;-75
2023/08/29 02:10:43;;;;;;;6.50;5.90;;;;;;;13.24;100.00;154761.34;5045789;28;20450;-74
2023/08/29 02:13:10;;;;;;;5.40;4.90;;;;;;;13.24;100.00;154761.34;5048522;28;20442;-74
2023/08/29 02:15:37;;;;;;;4.90;4.50;;;;;;;13.25;100.00;154763.97;5050547;28;20514;-75
2023/08/29 02:18:05;;;;;;;5.03;4.53;;;;;;;13.26;100.00;154765.28;5059127;28;20899;-75
2023/08/29 02:20:32;;;;;;;5.50;5.10;;;;;;;13.27;100.00;154769.13;5059701;28;20975;-76
2023/08/29 02:22:58;;;;;;;5.40;4.90;;;;;;;13.28;100.00;154771.75;5057033;28;20440;-75
2023/08/29 02:25:25;;;;;;;5.53;4.97;;;;;;;13.29;100.00;154774.31;5042670;28;20466;-75
2023/08/29 02:27:51;;;;;;;6.27;5.67;;;;;;;13.31;100.00;154779.56;5059623;28;20439;-75
2023/08/29 02:30:18;;;;;;;5.70;5.10;;;;;;;13.33;100.00;154783.44;5044748;28;20453;-75
2023/08/29 02:32:45;;;;;;;5.70;5.20;;;;;;;13.34;100.00;154786.03;5041201;28;20483;-75
2023/08/29 02:35:13;;;;;;;5.40;4.90;;;;;;;13.32;100.00;154782.13;5050215;28;20969;-75
2023/08/29 02:37:40;;;;;;;6.30;5.70;;;;;;;13.28;100.00;154771.75;5055216;28;20470;-75
2023/08/29 02:40:08;;;;;;;6.77;5.70;;;;;;;13.26;100.00;154766.53;5063408;28;20855;-75
2023/08/29 02:42:35;;;;;;;6.00;5.50;;;;;;;13.27;100.00;154769.13;5030836;28;20545;-75
2023/08/29 02:45:03;;;;;;;6.17;5.43;;;;;;;13.27;100.00;154767.84;5044420;28;20497;-75
2023/08/29 02:47:29;;;;;;;6.70;6.10;;;;;;;13.26;100.00;154766.53;5017137;28;20526;-76
2023/08/29 02:49:57;;;;;;;5.73;5.03;;;;;;;13.28;100.00;154771.75;5059070;28;20500;-75
2023/08/29 02:52:25;;;;;;;5.47;4.97;;;;;;;13.26;100.00;154765.28;5031507;28;20482;-75
2023/08/29 02:54:52;;;;;;;6.17;5.57;;;;;;;13.27;100.00;154769.13;5059008;28;20510;-75
2023/08/29 02:57:18;;;;;;;7.27;5.70;;;;;;;13.25;100.00;154763.97;5018219;28;20475;-74
2023/08/29 02:59:45;;;;;;;5.70;5.20;;;;;;;13.26;100.00;154766.53;5038662;28;20539;-75
2023/08/29 03:02:12;;;;;;;5.73;5.17;;;;;;;13.27;100.00;154769.13;5066499;28;20838;-75
2023/08/29 03:04:39;;;;;;;6.10;5.50;;;;;;;13.26;100.00;154766.53;5042296;28;20455;-74
2023/08/29 03:07:06;;;;;;;6.50;5.90;;;;;;;13.24;100.00;154760.03;5051915;28;20453;-75
2023/08/29 03:09:34;;;;;;;6.20;5.60;;;;;;;13.23;100.00;154758.78;5026998;28;20555;-75
2023/08/29 03:12:03;;;;;;;6.77;6.17;;;;;;;13.19;100.00;154748.38;5050424;28;20972;-75
2023/08/29 03:14:31;;;;;;;7.00;6.23;;;;;;;13.20;100.00;154751.00;5065912;28;20998;-75
2023/08/29 03:16:58;;;;;;;7.13;5.70;;;;;;;13.22;100.00;154756.19;5065866;28;20462;-75
2023/08/29 03:19:24;;;;;;;7.23;5.80;;;;;;;13.22;100.00;154754.88;5029575;28;20458;-75
2023/08/29 03:21:51;;;;;;;6.60;5.97;;;;;;;13.20;100.00;154751.00;5044926;28;20522;-75
2023/08/29 03:24:17;;;;;;;6.10;5.50;;;;;;;13.22;100.00;154756.19;5017366;28;20439;-75
2023/08/29 03:26:47;;;;;;;7.50;6.70;;;;;;;13.20;100.00;154751.00;5014208;28;21074;-76
2023/08/29 03:29:14;;;;;;;7.00;6.30;;;;;;;13.21;100.00;154752.31;5027981;28;20464;-76
2023/08/29 03:31:40;;;;;;;7.20;6.50;;;;;;;13.21;100.00;154752.31;5063051;28;20434;-75
2023/08/29 03:34:07;;;;;;;6.73;6.03;;;;;;;13.17;100.00;154743.22;5044509;28;20439;-75
2023/08/29 03:36:34;;;;;;;6.97;6.37;;;;;;;13.17;100.00;154743.22;5047907;28;20481;-75
2023/08/29 03:39:02;;;;;;;7.60;6.90;;;;;;;13.20;100.00;154751.00;5048936;28;20458;-75
2023/08/29 03:41:30;;;;;;;7.00;6.30;;;;;;;13.19;100.00;154748.38;5037686;28;20437;-74
2023/08/29 03:43:58;;;;;;;6.70;6.10;;;;;;;13.19;100.00;154747.06;5032327;28;20508;-74
2023/08/29 03:46:24;;;;;;;7.13;6.53;;;;;;;13.19;100.00;154748.38;5062436;28;20463;-74
2023/08/29 03:48:51;;;;;;;7.87;7.07;;;;;;;13.18;100.00;154745.81;5016577;28;20470;-74
2023/08/29 03:51:18;;;;;;;6.93;6.23;;;;;;;13.17;100.00;154741.91;5026667;28;20489;-74
2023/08/29 03:53:45;;;;;;;7.60;6.80;;;;;;;13.16;100.00;154739.28;5050279;28;20524;-74
2023/08/29 03:56:12;;;;;;;8.63;7.30;;;;;;;13.16;100.00;154740.59;5048179;28;20503;-75
2023/08/29 03:58:38;;;;;;;8.00;7.23;;;;;;;13.14;100.00;154735.41;5050743;28;20496;-76
2023/08/29 04:01:08;;;;;;;7.30;6.60;;;;;;;13.11;100.00;154727.63;5031130;28;20447;-76
2023/08/29 04:03:34;;;;;;;7.50;6.80;;;;;;;13.11;100.00;154726.31;5026513;28;20551;-76
2023/08/29 04:06:03;;;;;;;9.40;8.50;;;;;;;13.11;100.00;154727.63;5063253;28;20502;-76
2023/08/29 04:08:29;;;;;;;8.20;7.40;;;;;;;13.10;100.00;154725.06;5046664;28;20860;-76
2023/08/29 04:10:57;;;;;;;8.43;7.50;;;;;;;13.12;100.00;154730.22;5029387;28;20486;-76
2023/08/29 04:13:24;;;;;;;9.73;8.13;;;;;;;13.13;100.00;154731.53;5014178;28;20466;-77
2023/08/29 04:15:51;;;;;;;8.60;7.47;;;;;;;13.14;100.00;154735.41;5033417;28;20439;-76
2023/08/29 04:18:19;;;;;;;9.50;8.60;;;;;;;13.14;100.00;154735.41;5032670;28;20537;-77
2023/08/29 04:20:45;;;;;;;9.33;8.43;;;;;;;13.12;100.00;154728.94;5048549;28;20451;-77
2023/08/29 04:23:12;;;;;;;8.80;7.90;;;;;;;13.17;100.00;154743.22;5022496;28;20859;-77
2023/08/29 04:25:39;;;;;;;9.87;8.87;;;;;;;13.19;100.00;154748.38;5015138;28;20450;-77
2023/08/29 04:28:06;;;;;;;9.70;8.70;;;;;;;13.19;100.00;154748.38;5050103;28;20441;-77
2023/08/29 04:30:33;;;;;;;9.60;8.70;;;;;;;13.22;100.00;154756.19;5047918;28;20816;-77
2023/08/29 04:32:59;;;;;;;9.20;8.40;;;;;;;13.23;100.00;154758.78;5046253;28;20454;-77
2023/08/29 04:35:27;;;;;;;10.90;9.80;;;;;;;13.23;100.00;154757.47;5031547;28;20451;-77
2023/08/29 04:37:55;;;;;;;11.03;9.93;;;;;;;13.26;100.00;154765.28;5049754;28;20528;-77
2023/08/29 04:40:21;;;;;;;10.90;9.80;;;;;;;13.22;100.00;154756.19;5028981;28;20470;-77
2023/08/29 04:42:48;;;;;;;9.80;8.80;;;;;;;13.21;100.00;154753.56;5023829;28;20443;-77
2023/08/29 04:45:15;;;;;;;10.53;9.53;;;;;;;13.21;100.00;154752.31;5025556;28;20451;-77
2023/08/29 04:47:41;;;;;;;9.97;8.97;;;;;;;13.21;100.00;154753.56;5031685;28;20505;-77
2023/08/29 04:50:08;;;;;;;10.53;9.30;;;;;;;13.22;100.00;154754.88;5027161;28;20450;-77
2023/08/29 04:52:37;;;;;;;12.07;9.67;;;;;;;13.25;100.00;154763.97;5039741;28;20518;-77
2023/08/29 04:55:05;;;;;;;11.77;9.70;;;;;;;13.24;100.00;154761.34;5022440;28;20511;-77
2023/08/29 04:57:33;;;;;;;10.87;9.77;;;;;;;13.24;100.00;154761.34;5055298;28;20543;-77
2023/08/29 05:00:00;;;;;;;11.10;9.87;;;;;;;13.24;100.00;154761.34;5044050;28;20470;-77
2023/08/29 05:02:26;;;;;;;10.93;9.77;;;;;;;13.23;100.00;154758.78;5014868;28;20458;-77
2023/08/29 05:04:53;;;;;;;11.03;9.93;;;;;;;13.23;100.00;154757.47;5005869;28;20458;-77
2023/08/29 05:07:20;;;;;;;13.93;12.40;;;;;;;13.26;100.00;154766.53;5051941;28;20446;-77
2023/08/29 05:09:48;;;;;;;11.23;10.13;;;;;;;13.26;100.00;154766.53;5033087;28;20463;-77
2023/08/29 05:12:15;;;;;;;11.73;10.63;;;;;;;13.26;100.00;154765.28;5022784;28;20875;-77
2023/08/29 05:14:41;;;;;;;11.63;10.43;;;;;;;13.25;100.00;154763.97;5055468;28;20951;-77
2023/08/29 05:17:09;;;;;;;12.30;11.10;;;;;;;13.27;100.00;154769.13;5001883;28;20552;-75
2023/08/29 05:19:36;;;;;;;11.30;10.17;;;;;;;13.26;100.00;154766.53;5006815;28;20455;-75
2023/08/29 05:22:03;;;;;;;11.93;10.63;;;;;;;13.28;100.00;154771.75;5053236;28;20451;-74
2023/08/29 05:24:30;;;;;;;13.73;11.27;;;;;;;13.29;100.00;154773.06;5036732;28;20455;-75
2023/08/29 05:26:58;;;;;;;11.40;10.30;;;;;;;13.28;100.00;154771.75;5035224;28;20457;-75
2023/08/29 05:29:25;;;;;;;12.80;11.17;;;;;;;13.30;100.00;154776.94;5069501;28;20512;-76
2023/08/29 05:31:51;;;;;;;13.17;10.90;;;;;;;13.33;100.00;154784.72;5055374;28;20934;-74
2023/08/29 05:34:18;;;;;;;12.87;11.60;;;;;;;13.32;100.00;154782.13;5051410;28;20459;-75
2023/08/29 05:36:46;;;;;;;12.77;10.60;;;;;;;13.33;100.00;154784.72;5049740;28;20478;-75
2023/08/29 05:39:13;;;;;;;12.10;10.87;;;;;;;13.34;100.00;154786.03;5021797;28;20456;-75
2023/08/29 05:41:40;;;;;;;12.43;10.90;;;;;;;13.37;100.00;154793.78;5056722;28;20446;-75
2023/08/29 05:44:08;;;;;;;12.27;10.90;;;;;;;13.38;100.00;154796.38;5050936;28;20490;-75
2023/08/29 05:46:35;;;;;;;11.13;10.03;;;;;;;13.35;100.00;154789.91;5055591;28;20450;-74
2023/08/29 05:49:01;;;;;;;12.37;10.90;;;;;;;13.34;100.00;154786.03;5056077;28;20455;-74
2023/08/29 05:51:28;;;;;;;12.57;11.00;;;;;;;13.34;100.00;154786.03;5055235;28;20458;-75
2023/08/29 05:53:55;;;;;;;12.20;11.00;;;;;;;13.35;100.00;154788.59;5051629;28;20492;-75
2023/08/29 05:56:21;;;;;;;12.77;10.93;;;;;;;13.35;100.00;154789.91;5055980;28;20522;-74
2023/08/29 05:58:48;;;;;;;10.90;9.60;;;;;;;13.35;100.00;154788.59;5055997;28;20450;-75
2023/08/29 06:01:16;;;;;;;11.27;10.07;;;;;;;13.37;100.00;154793.78;5056111;28;20940;-75
2023/08/29 06:03:43;;;;;;;11.17;9.87;;;;;;;13.36;100.00;154792.53;5004824;28;20549;-75
2023/08/29 06:06:09;;;;;;;11.70;10.03;;;;;;;13.37;100.00;154795.09;5054172;28;20446;-75
2023/08/29 06:08:36;;;;;;;12.07;10.87;;;;;;;13.40;100.00;154802.88;5053345;28;20450;-75
2023/08/29 06:11:03;;;;;;;12.77;10.93;;;;;;;13.40;100.00;154801.56;5049453;28;20457;-75
2023/08/29 06:13:30;;;;;;;11.60;10.40;;;;;;;13.41;100.00;154805.50;5054232;28;20466;-74
2023/08/29 06:15:56;;;;;;;12.20;10.90;;;;;;;13.42;100.00;154806.81;5036826;28;20966;-76
2023/08/29 06:18:25;;;;;;;11.60;10.40;;;;;;;13.42;100.00;154808.06;5067206;28;20472;-76
2023/08/29 06:20:51;;;;;;;12.80;10.73;;;;;;;13.39;100.00;154799.00;5052995;28;20462;-76
2023/08/29 06:23:18;;;;;;;12.53;10.93;;;;;;;13.40;100.00;154802.88;5022394;28;20951;-76
2023/08/29 06:25:45;;;;;;;13.90;11.93;;;;;;;13.40;100.00;154802.88;5067647;28;20463;-76
2023/08/29 06:28:12;;;;;;;12.50;11.03;;;;;;;13.39;100.00;154800.31;5021801;28;21042;-75
2023/08/29 06:30:38;;;;;;;12.40;11.10;;;;;;;13.39;100.00;154799.00;5050847;28;20870;-76
2023/08/29 06:33:06;;;;;;;11.97;10.67;;;;;;;13.38;100.00;154797.69;5068110;28;20962;-75
2023/08/29 06:35:37;;;;;;;13.03;10.97;;;;;;;13.36;100.00;154792.53;5053456;28;20451;-73
2023/08/29 06:38:04;;;;;;;11.67;10.47;;;;;;;13.39;100.00;154799.00;5052880;28;20906;-74
2023/08/29 06:40:31;;;;;;;11.87;10.47;;;;;;;13.38;100.00;154797.69;5033853;28;20488;-74
2023/08/29 06:42:58;;;;;;;12.87;11.50;;;;;;;13.40;100.00;154801.56;5068003;28;20449;-74
2023/08/29 06:45:24;;;;;;;14.43;11.53;;;;;;;13.38;100.00;154796.38;5065678;28;20540;-76
2023/08/29 06:47:51;;;;;;;14.17;12.47;;;;;;;13.35;100.00;154789.91;5035190;28;20704;-75
2023/08/29 06:50:18;;;;;;;16.33;12.13;;;;;;;13.37;100.00;154795.09;5066151;28;20553;-75
2023/08/29 06:52:46;;;;;;;14.43;12.87;;;;;;;13.38;100.00;154797.69;5054450;28;20486;-75
2023/08/29 06:55:13;;;;;;;15.97;12.37;;;;;;;13.37;100.00;154793.78;5054807;28;20462;-75
2023/08/29 06:57:40;;;;;;;15.20;13.70;;;;;;;13.38;100.00;154796.38;5053332;28;20471;-76
2023/08/29 07:00:10;;;;;;;13.43;12.00;;;;;;;13.38;100.00;154797.69;5039756;28;21182;-76
2023/08/29 07:02:36;;;;;;;13.43;12.03;;;;;;;13.40;100.00;154801.56;5036394;28;20545;-75
2023/08/29 07:05:04;;;;;;;17.73;13.10;;;;;;;13.39;100.00;154800.31;5054791;28;20454;-75
2023/08/29 07:07:31;;;;;;;15.70;13.07;;;;;;;13.40;100.00;154802.88;5051949;28;20555;-74
2023/08/29 07:09:59;;;;;;;15.43;13.83;;;;;;;13.41;100.00;154805.50;5065952;28;20458;-74
2023/08/29 07:12:26;;;;;;;14.70;12.40;;;;;;;13.45;100.00;154814.53;5068287;28;20824;-74
2023/08/29 07:14:52;;;;;;;16.03;14.40;;;;;;;13.47;100.00;154818.47;5034125;28;20466;-74
2023/08/29 07:17:19;;;;;;;15.53;13.90;;;;;;;13.50;100.00;154826.25;5034242;28;20842;-74
2023/08/29 07:19:45;;;;;;;15.17;13.57;;;;;;;13.51;100.00;154828.81;5068238;28;20462;-75
2023/08/29 07:22:12;;;;;;;15.00;13.40;;;;;;;13.53;100.00;154835.31;5019004;28;20558;-74
2023/08/29 07:24:39;;;;;;;15.80;13.50;;;;;;;13.56;100.00;154841.78;5051802;28;20512;-74
2023/08/29 07:27:07;;;;;;;15.30;13.27;;;;;;;13.59;100.00;154849.59;5021962;28;20780;-75
2023/08/29 07:29:34;;;;;;;15.80;14.10;;;;;;;13.61;100.00;154854.81;5054563;28;20468;-74
2023/08/29 07:32:00;;;;;;;14.17;12.67;;;;;;;13.64;100.00;154862.56;5055952;28;20540;-74
2023/08/29 07:34:27;;;;;;;14.63;13.13;;;;;;;13.64;100.00;154863.88;5038151;28;20461;-74
2023/08/29 07:36:54;;;;;;;15.57;13.97;;;;;;;13.65;100.00;154866.50;5070533;28;20462;-75
2023/08/29 07:39:21;;;;;;;15.20;13.00;;;;;;;13.67;100.00;154870.34;5057962;28;20449;-74
2023/08/29 07:41:47;;;;;;;14.53;13.03;;;;;;;13.68;100.00;154874.28;5059043;28;20454;-74
2023/08/29 07:44:15;;;;;;;14.93;13.33;;;;;;;13.67;100.00;154870.34;5061940;28;20463;-75
2023/08/29 07:46:42;;;;;;;14.57;13.07;;;;;;;13.69;100.00;154876.84;5051588;28;20445;-75
2023/08/29 07:49:13;;;;;;;14.83;13.23;;;;;;;13.71;100.00;154882.06;5071843;28;20455;-74
2023/08/29 07:51:39;;;;;;;14.93;12.70;;;;;;;13.72;100.00;154884.63;5038313;28;20515;-74
2023/08/29 07:54:06;;;;;;;17.43;13.20;;;;;;;13.74;100.00;154889.81;5039088;28;20544;-74
2023/08/29 07:56:33;;;;;;;13.67;12.27;;;;;;;13.73;100.00;154885.94;5058647;28;20948;-76
2023/08/29 07:58:59;;;;;;;15.30;12.90;;;;;;;13.73;100.00;154885.94;5057067;28;20788;-74
2023/08/29 08:01:27;;;;;;;14.07;12.13;;;;;;;13.73;100.00;154885.94;5056164;28;20475;-75
2023/08/29 08:03:54;;;;;;;13.63;12.27;;;;;;;13.73;100.00;154885.94;5040762;28;20450;-75
2023/08/29 08:06:20;;;;;;;15.50;11.87;;;;;;;13.73;100.00;154887.25;5023603;28;20487;-75
2023/08/29 08:08:47;;;;;;;15.00;13.40;;;;;;;13.74;100.00;154889.81;5038954;28;20455;-74
2023/08/29 08:11:13;;;;;;;15.90;14.13;;;;;;;13.77;100.00;154897.63;5053495;28;20565;-74
2023/08/29 08:13:40;;;;;;;15.20;13.20;;;;;;;13.78;100.00;154898.91;5020983;28;20467;-75
2023/08/29 08:16:07;;;;;;;15.40;13.80;;;;;;;13.79;100.00;154901.53;5059624;28;20828;-75
2023/08/29 08:18:34;;;;;;;14.27;12.77;;;;;;;13.83;100.00;154913.22;5055664;28;20479;-75
2023/08/29 08:21:01;;;;;;;14.53;12.50;;;;;;;13.85;100.00;154917.06;5038340;28;20460;-75
2023/08/29 08:23:27;;;;;;;13.57;12.17;;;;;;;13.87;100.00;154922.31;5056041;28;20465;-75
2023/08/29 08:25:54;;;;;;;15.50;13.17;;;;;;;13.91;100.00;154933.97;5056871;28;20451;-75
2023/08/29 08:28:21;;;;;;;14.80;13.20;;;;;;;13.95;100.00;154943.09;5055994;28;20488;-74
2023/08/29 08:30:48;;;;;;;14.80;12.90;;;;;;;13.96;100.00;154946.94;5057299;28;20455;-75
2023/08/29 08:33:15;;;;;;;13.73;12.33;;;;;;;13.97;100.00;154948.25;5056415;28;20976;-75
2023/08/29 08:35:43;;;;;;;15.60;14.00;;;;;;;14.00;100.00;154957.31;5069146;28;20451;-75
2023/08/29 08:38:10;;;;;;;14.63;13.00;;;;;;;14.02;100.00;154961.25;5065949;28;20482;-75
2023/08/29 08:40:38;;;;;;;14.30;12.90;;;;;;;14.04;100.00;154967.72;5055778;28;20454;-75
2023/08/29 08:43:05;;;;;;;15.00;13.37;;;;;;;14.05;100.00;154969.03;5053981;28;20447;-75
2023/08/29 08:45:32;;;;;;;14.93;13.33;;;;;;;14.02;100.00;154961.25;5054082;28;20796;-75
2023/08/29 08:47:59;;;;;;;15.50;14.00;;;;;;;14.01;100.00;154958.63;5054356;28;20454;-75
2023/08/29 08:50:26;;;;;;;14.70;13.00;;;;;;;14.00;100.00;154956.06;5055905;28;20462;-74
2023/08/29 08:52:56;;;;;;;15.60;12.40;;;;;;;14.03;100.00;154965.13;5039348;28;20490;-75
2023/08/29 08:55:22;;;;;;;14.33;12.83;;;;;;;14.02;100.00;154961.25;5050132;28;20492;-75
2023/08/29 08:57:50;;;;;;;16.80;14.00;;;;;;;14.01;100.00;154958.63;5068312;28;20918;-75
2023/08/29 09:00:17;;;;;;;14.70;13.20;;;;;;;13.99;100.00;154954.75;5057523;28;20445;-75
2023/08/29 09:02:44;;;;;;;14.10;12.70;;;;;;;13.98;100.00;154950.81;5055188;28;20451;-75
2023/08/29 09:05:10;;;;;;;15.63;13.07;;;;;;;13.99;100.00;154953.44;5067302;28;20987;-76
2023/08/29 09:07:38;;;;;;;15.80;13.90;;;;;;;14.05;100.00;154969.03;5053546;28;20442;-75
2023/08/29 09:10:11;;;;;;;14.40;13.00;;;;;;;14.05;100.00;154969.03;5069719;28;20978;-75
2023/08/29 09:12:46;;;;;;;13.53;12.13;;;;;;;14.07;100.00;154974.22;5052294;28;20959;-75
2023/08/29 09:15:14;;;;;;;16.13;14.43;;;;;;;14.13;100.00;154989.81;5052644;28;20457;-75
2023/08/29 09:17:45;;;;;;;15.03;13.23;;;;;;;14.12;100.00;154987.19;5057629;28;20849;-75
2023/08/29 09:20:12;;;;;;;16.10;14.40;;;;;;;14.13;100.00;154988.50;5055735;28;20446;-74
2023/08/29 09:22:40;;;;;;;15.47;13.87;;;;;;;14.17;100.00;155000.19;5065527;28;20447;-77
2023/08/29 09:25:07;;;;;;;14.97;13.47;;;;;;;14.15;100.00;154993.69;5024630;28;20892;-75
2023/08/29 09:27:41;;;;;;;15.00;13.40;;;;;;;14.14;100.00;154992.38;5070028;28;20454;-74
2023/08/29 09:30:10;;;;;;;16.20;14.47;;;;;;;14.12;100.00;154985.88;5057011;28;20450;-75
2023/08/29 09:32:37;;;;;;;15.77;14.17;;;;;;;14.10;100.00;154982.03;5067144;28;20454;-75
2023/08/29 09:35:05;;;;;;;16.50;14.80;;;;;;;14.12;100.00;154987.19;5069703;28;20524;-74
2023/08/29 09:37:31;;;;;;;15.75;14.25;;;;;;;14.12;100.00;154987.19;5055105;28;20457;-75
2023/08/29 09:39:59;;;;;;;15.40;13.80;;;;;;;14.11;100.00;154983.31;5025573;28;20450;-75
2023/08/29 09:42:26;;;;;;;14.87;13.37;;;;;;;14.13;100.00;154988.50;5052932;28;20566;-75
2023/08/29 09:44:54;;;;;;;15.47;13.87;;;;;;;14.11;100.00;154984.59;5058786;28;20457;-75
2023/08/29 09:47:23;;;;;;;13.97;12.60;;;;;;;14.07;100.00;154974.22;5043789;28;20470;-75
2023/08/29 09:49:50;;;;;;;16.43;14.57;;;;;;;14.10;100.00;154982.03;5065739;28;21230;-75
2023/08/29 09:52:18;;;;;;;15.27;13.77;;;;;;;14.12;100.00;154987.19;5066844;28;20489;-75
2023/08/29 09:54:46;;;;;;;17.40;15.00;;;;;;;14.12;100.00;154987.19;5064679;28;20455;-75
2023/08/29 09:57:14;;;;;;;15.30;13.80;;;;;;;14.13;100.00;154988.50;5036577;28;21164;-75
2023/08/29 09:59:43;;;;;;;14.77;13.13;;;;;;;14.13;100.00;154988.50;5050750;28;20561;-75
2023/08/29 10:02:12;;;;;;;15.87;14.33;;;;;;;14.10;100.00;154982.03;5055495;28;20482;-75
2023/08/29 10:04:47;;;;;;;14.30;12.80;;;;;;;14.12;100.00;154987.19;5069390;28;20465;-75
2023/08/29 10:07:14;;;;;;;15.40;13.53;;;;;;;14.17;100.00;154998.88;5004356;28;20529;-75
2023/08/29 10:09:42;;;;;;;16.07;14.37;;;;;;;14.20;100.00;155007.97;5052599;28;20454;-75
2023/08/29 10:12:09;;;;;;;16.40;14.80;;;;;;;14.16;100.00;154996.31;5068359;28;21228;-75
2023/08/29 10:14:37;;;;;;;16.80;13.40;;;;;;;14.15;100.00;154993.69;5030999;28;20444;-76
2023/08/29 10:17:04;;;;;;;15.60;14.00;;;;;;;14.18;100.00;155002.78;5017620;28;20716;-76
2023/08/29 10:19:33;;;;;;;16.00;14.40;;;;;;;14.22;100.00;155013.16;5070387;28;20554;-75
2023/08/29 10:22:00;;;;;;;15.53;13.67;;;;;;;14.28;100.00;155027.44;5017655;28;20461;-76
2023/08/29 10:24:27;;;;;;;15.80;14.20;;;;;;;14.35;100.00;155046.97;5052160;28;20484;-75
2023/08/29 10:26:55;;;;;;;16.77;15.00;;;;;;;14.45;100.00;155072.97;5050565;28;20465;-76
2023/08/29 10:29:22;;;;;;;16.47;14.67;;;;;;;14.51;100.00;155088.53;5069894;28;20449;-75
2023/08/29 10:31:48;;;;;;;18.43;16.30;;;;;;;14.62;100.00;155117.09;5051464;28;20849;-76
2023/08/29 10:34:15;;;;;;;18.07;16.20;;;;;;;14.73;100.00;155143.09;5053087;28;20470;-75
2023/08/29 10:36:45;;;;;;;18.37;16.50;;;;;;;14.80;100.00;155161.31;5017848;28;20446;-76
2023/08/29 10:39:15;;;;;;;17.93;16.03;;;;;;;14.90;100.00;155188.56;5002583;28;20463;-76
2023/08/29 10:41:46;;;;;;;17.47;15.67;;;;;;;15.01;100.00;155217.13;5020402;28;20463;-75
2023/08/29 10:44:35;;;;;;;16.93;15.13;;;;;;;15.06;100.00;155228.84;5033201;28;20488;-76
2023/08/29 10:47:15;;;;;;;15.97;14.37;;;;;;;15.15;100.00;155253.53;5034492;28;20461;-76
2023/08/29 10:49:42;;;;;;;17.23;15.43;;;;;;;15.25;100.00;155279.50;5030331;28;20450;-76
2023/08/29 10:52:11;;;;;;;19.70;16.30;;;;;;;15.33;100.00;155297.72;5054785;28;20583;-76
2023/08/29 10:54:38;;;;;;;16.40;14.80;;;;;;;15.39;100.00;155314.59;5051840;28;20447;-75
2023/08/29 10:57:26;;;;;;;17.00;15.20;;;;;;;15.49;100.00;155339.38;5051122;28;20860;-76
2023/08/29 10:59:54;;;;;;;17.07;15.37;;;;;;;15.55;100.00;155356.25;5053676;28;20667;-76
2023/08/29 11:02:29;;;;;;;17.17;15.43;;;;;;;15.61;100.00;155371.84;5018017;28;20462;-76
2023/08/29 11:05:11;;;;;;;16.50;14.80;;;;;;;15.62;100.00;155374.41;5067999;28;21449;-76
2023/08/29 11:07:39;;;;;;;14.90;13.40;;;;;;;15.58;100.00;155362.75;5068085;28;20518;-76
2023/08/29 11:10:20;;;;;;;17.23;15.50;;;;;;;15.51;100.00;155344.56;5036637;28;20849;-76
2023/08/29 11:13:11;;;;;;;14.37;12.97;;;;;;;15.52;100.00;155348.44;5051761;28;20453;-76